sensor_id;sensor_type;location;lat;lon;timestamp;pressure;altitude;pressure_sealevel;temperature;humidity
54856;BME280;40748;53.168;5.800;2023-02-26T00:02:25;102042.21;;;2.63;65.83
54856;BME280;40748;53.168;5.800;2023-02-26T00:04:55;102051.19;;;2.53;65.46
54856;BME280;40748;53.168;5.800;2023-02-26T00:07:25;102054.76999999999;;;2.57;65.31
54856;BME280;40748;53.168;5.800;2023-02-26T00:09:55;102057.93;;;2.52;65.42
54856;BME280;40748;53.168;5.800;2023-02-26T00:12:25;102057.93;;;2.45;65.47
54856;BME280;40748;53.168;5.800;2023-02-26T00:14:55;102056.56;;;2.40;65.47
54856;BME280;40748;53.168;5.800;2023-02-26T00:17:30;102063.4;;;2.31;65.54
54856;BME280;40748;53.168;5.800;2023-02-26T00:19:55;102062.58;;;2.25;65.48
54856;BME280;40748;53.168;5.800;2023-02-26T00:22:25;102067.31;;;2.26;65.49
54856;BME280;40748;53.168;5.800;2023-02-26T00:24:55;102065.54;;;2.28;65.42
54856;BME280;40748;53.168;5.800;2023-02-26T00:27:25;102070.97;;;2.17;65.71
54856;BME280;40748;53.168;5.800;2023-02-26T00:29:55;102065.32999999999;;;2.27;65.96
54856;BME280;40748;53.168;5.800;2023-02-26T00:32:25;102073.51999999999;;;2.23;65.97
54856;BME280;40748;53.168;5.800;2023-02-26T00:34:55;102070.31;;;2.29;65.88
54856;BME280;40748;53.168;5.800;2023-02-26T00:37:26;102075.59;;;2.24;65.92
54856;BME280;40748;53.168;5.800;2023-02-26T00:42:25;102076.12000000001;;;2.11;65.93
54856;BME280;40748;53.168;5.800;2023-02-26T00:44:55;102074.31;;;2.19;65.57
54856;BME280;40748;53.168;5.800;2023-02-26T00:47:28;102081.62999999999;;;2.17;65.88
54856;BME280;40748;53.168;5.800;2023-02-26T00:50:00;102084.95;;;2.05;65.82
54856;BME280;40748;53.168;5.800;2023-02-26T00:52:26;102082.14;;;2.16;66.11
54856;BME280;40748;53.168;5.800;2023-02-26T00:54:55;102090.18;;;2.18;65.99
54856;BME280;40748;53.168;5.800;2023-02-26T00:57:25;102094.61;;;2.14;65.82
54856;BME280;40748;53.168;5.800;2023-02-26T00:59:55;102094.34;;;2.08;65.73
54856;BME280;40748;53.168;5.800;2023-02-26T01:02:25;102104.03;;;2.20;66.12
54856;BME280;40748;53.168;5.800;2023-02-26T01:04:55;102114.89;;;2.13;65.86
54856;BME280;40748;53.168;5.800;2023-02-26T01:07:25;102113.76000000001;;;2.17;65.27
54856;BME280;40748;53.168;5.800;2023-02-26T01:09:55;102111.21;;;2.03;65.87
54856;BME280;40748;53.168;5.800;2023-02-26T01:12:25;102109.95;;;2.15;65.90
54856;BME280;40748;53.168;5.800;2023-02-26T01:14:55;102113.71;;;2.11;66.02
54856;BME280;40748;53.168;5.800;2023-02-26T01:17:26;102109.38;;;2.21;66.10
54856;BME280;40748;53.168;5.800;2023-02-26T01:19:56;102114.31;;;2.23;66.08
54856;BME280;40748;53.168;5.800;2023-02-26T01:24:58;102125.03;;;2.15;65.91
54856;BME280;40748;53.168;5.800;2023-02-26T01:27:25;102126.17;;;2.28;65.92
54856;BME280;40748;53.168;5.800;2023-02-26T01:29:55;102125.12000000001;;;2.35;65.95
54856;BME280;40748;53.168;5.800;2023-02-26T01:32:26;102129.24;;;2.29;65.94
54856;BME280;40748;53.168;5.800;2023-02-26T01:34:59;102126.45;;;2.26;66.08
54856;BME280;40748;53.168;5.800;2023-02-26T01:37:26;102130.11;;;2.14;66.25
54856;BME280;40748;53.168;5.800;2023-02-26T01:40:01;102123.71;;;2.19;66.29
54856;BME280;40748;53.168;5.800;2023-02-26T01:42:25;102123.71;;;2.24;66.29
54856;BME280;40748;53.168;5.800;2023-02-26T01:44:57;102131.92;;;2.36;66.82
54856;BME280;40748;53.168;5.800;2023-02-26T01:47:26;102136.8;;;2.45;66.38
54856;BME280;40748;53.168;5.800;2023-02-26T01:49:55;102138.89;;;2.58;66.51
54856;BME280;40748;53.168;5.800;2023-02-26T01:57:25;102141.06;;;2.65;66.27
54856;BME280;40748;53.168;5.800;2023-02-26T01:59:55;102151.22;;;2.67;66.38
54856;BME280;40748;53.168;5.800;2023-02-26T02:02:25;102153.64;;;2.55;66.29
54856;BME280;40748;53.168;5.800;2023-02-26T02:04:55;102155.03;;;2.54;66.19
54856;BME280;40748;53.168;5.800;2023-02-26T02:07:25;102154.58;;;2.60;66.30
54856;BME280;40748;53.168;5.800;2023-02-26T02:09:55;102157.31;;;2.48;66.18
54856;BME280;40748;53.168;5.800;2023-02-26T02:12:26;102161.22;;;2.45;66.45
54856;BME280;40748;53.168;5.800;2023-02-26T02:14:58;102163.4;;;2.50;66.51
54856;BME280;40748;53.168;5.800;2023-02-26T02:17:26;102167.90999999999;;;2.49;66.58
54856;BME280;40748;53.168;5.800;2023-02-26T02:20:01;102165.36;;;2.52;66.62
54856;BME280;40748;53.168;5.800;2023-02-26T02:22:30;102165.88;;;2.31;66.51
54856;BME280;40748;53.168;5.800;2023-02-26T02:24:57;102172.96;;;2.32;66.91
54856;BME280;40748;53.168;5.800;2023-02-26T02:27:27;102175.59999999999;;;2.29;66.89
54856;BME280;40748;53.168;5.800;2023-02-26T02:30:04;102175.01999999999;;;2.42;66.91
54856;BME280;40748;53.168;5.800;2023-02-26T02:32:26;102181.06;;;2.28;66.77
54856;BME280;40748;53.168;5.800;2023-02-26T02:34:57;102185.17;;;2.23;66.82
54856;BME280;40748;53.168;5.800;2023-02-26T02:37:26;102190.45;;;2.27;67.17
54856;BME280;40748;53.168;5.800;2023-02-26T02:39:56;102192.17;;;2.24;67.07
54856;BME280;40748;53.168;5.800;2023-02-26T02:42:25;102196.45000000001;;;2.28;67.26
54856;BME280;40748;53.168;5.800;2023-02-26T02:44:57;102201.26000000001;;;2.43;67.40
54856;BME280;40748;53.168;5.800;2023-02-26T02:47:25;102201.99;;;2.39;67.21
54856;BME280;40748;53.168;5.800;2023-02-26T02:50:01;102200.69;;;2.30;67.39
54856;BME280;40748;53.168;5.800;2023-02-26T02:52:27;102203.52;;;2.41;67.76
54856;BME280;40748;53.168;5.800;2023-02-26T02:54:55;102208.18000000001;;;2.39;67.61
54856;BME280;40748;53.168;5.800;2023-02-26T02:57:25;102208.44;;;2.45;67.74
54856;BME280;40748;53.168;5.800;2023-02-26T02:59:56;102210.91;;;2.43;67.54
54856;BME280;40748;53.168;5.800;2023-02-26T03:02:28;102211.27;;;2.40;67.35
54856;BME280;40748;53.168;5.800;2023-02-26T03:04:55;102210.19;;;2.26;67.30
54856;BME280;40748;53.168;5.800;2023-02-26T03:07:25;102216.58;;;2.22;67.50
54856;BME280;40748;53.168;5.800;2023-02-26T03:09:55;102216.86;;;2.21;67.55
54856;BME280;40748;53.168;5.800;2023-02-26T03:12:25;102218.95;;;2.08;67.28
54856;BME280;40748;53.168;5.800;2023-02-26T03:14:55;102218.36;;;2.22;67.59
54856;BME280;40748;53.168;5.800;2023-02-26T03:17:26;102220.47;;;2.23;67.37
54856;BME280;40748;53.168;5.800;2023-02-26T03:19:58;102223.94;;;2.25;67.06
54856;BME280;40748;53.168;5.800;2023-02-26T03:22:27;102223.94;;;2.15;67.06
54856;BME280;40748;53.168;5.800;2023-02-26T03:24:55;102224.47;;;2.22;67.27
54856;BME280;40748;53.168;5.800;2023-02-26T03:27:27;102225.42;;;2.17;67.07
54856;BME280;40748;53.168;5.800;2023-02-26T03:29:55;102229.65000000001;;;2.20;67.10
54856;BME280;40748;53.168;5.800;2023-02-26T03:32:25;102240.28;;;2.15;66.98
54856;BME280;40748;53.168;5.800;2023-02-26T03:34:57;102238.45;;;2.17;67.05
54856;BME280;40748;53.168;5.800;2023-02-26T03:37:25;102240.3;;;2.18;66.97
54856;BME280;40748;53.168;5.800;2023-02-26T03:39:57;102247.86;;;2.14;66.88
54856;BME280;40748;53.168;5.800;2023-02-26T03:44:55;102264.26;;;2.12;66.99
54856;BME280;40748;53.168;5.800;2023-02-26T03:49:55;102273.03;;;2.02;67.06
54856;BME280;40748;53.168;5.800;2023-02-26T03:52:26;102278.94;;;2.05;67.29
54856;BME280;40748;53.168;5.800;2023-02-26T03:54:56;102280.8;;;2.09;67.48
54856;BME280;40748;53.168;5.800;2023-02-26T03:59:55;102291.3;;;2.12;67.65
54856;BME280;40748;53.168;5.800;2023-02-26T04:02:26;102294.5;;;2.09;67.69
54856;BME280;40748;53.168;5.800;2023-02-26T04:04:56;102295.51;;;2.05;67.73
54856;BME280;40748;53.168;5.800;2023-02-26T04:07:25;102302.26;;;2.11;67.94
54856;BME280;40748;53.168;5.800;2023-02-26T04:09:55;102301.28;;;2.14;67.91
54856;BME280;40748;53.168;5.800;2023-02-26T04:12:26;102304.63;;;2.17;67.83
54856;BME280;40748;53.168;5.800;2023-02-26T04:14:55;102307.93;;;2.12;67.69
54856;BME280;40748;53.168;5.800;2023-02-26T04:19:55;102311.03;;;2.09;67.57
54856;BME280;40748;53.168;5.800;2023-02-26T04:22:25;102312.34;;;2.05;67.51
54856;BME280;40748;53.168;5.800;2023-02-26T04:24:55;102314.47;;;2.01;67.42
54856;BME280;40748;53.168;5.800;2023-02-26T04:27:25;102321.64;;;1.94;67.41
54856;BME280;40748;53.168;5.800;2023-02-26T04:29:55;102325.33;;;1.91;67.42
54856;BME280;40748;53.168;5.800;2023-02-26T04:32:25;102326.44;;;1.86;67.44
54856;BME280;40748;53.168;5.800;2023-02-26T04:34:55;102326.53;;;1.83;67.53
54856;BME280;40748;53.168;5.800;2023-02-26T04:37:25;102323.08;;;1.79;67.54
54856;BME280;40748;53.168;5.800;2023-02-26T04:39:55;102323.92;;;1.77;67.54
54856;BME280;40748;53.168;5.800;2023-02-26T04:42:25;102330.16;;;1.74;67.54
54856;BME280;40748;53.168;5.800;2023-02-26T04:44:55;102332.93;;;1.71;67.51
54856;BME280;40748;53.168;5.800;2023-02-26T04:47:25;102331.52;;;1.64;67.47
54856;BME280;40748;53.168;5.800;2023-02-26T04:49:55;102335.29999999999;;;1.61;67.48
54856;BME280;40748;53.168;5.800;2023-02-26T04:52:25;102341.81999999999;;;1.56;67.50
54856;BME280;40748;53.168;5.800;2023-02-26T04:54:55;102345.94;;;1.52;67.56
54856;BME280;40748;53.168;5.800;2023-02-26T04:57:25;102348.65999999999;;;1.34;67.58
54856;BME280;40748;53.168;5.800;2023-02-26T04:59:55;102349.19;;;1.31;68.19
54856;BME280;40748;53.168;5.800;2023-02-26T05:02:25;102356.23000000001;;;1.23;68.25
54856;BME280;40748;53.168;5.800;2023-02-26T05:04:55;102363.48000000001;;;1.24;68.63
54856;BME280;40748;53.168;5.800;2023-02-26T05:07:25;102370.4;;;1.17;68.62
54856;BME280;40748;53.168;5.800;2023-02-26T05:09:55;102371.5;;;1.22;68.89
54856;BME280;40748;53.168;5.800;2023-02-26T05:12:25;102371.5;;;1.28;68.91
54856;BME280;40748;53.168;5.800;2023-02-26T05:14:55;102375.53;;;1.16;68.67
54856;BME280;40748;53.168;5.800;2023-02-26T05:17:25;102378.45;;;1.21;69.25
54856;BME280;40748;53.168;5.800;2023-02-26T05:22:25;102386.28;;;1.25;69.27
54856;BME280;40748;53.168;5.800;2023-02-26T05:24:55;102386.33;;;1.27;69.17
54856;BME280;40748;53.168;5.800;2023-02-26T05:27:25;102389.15;;;1.25;69.12
54856;BME280;40748;53.168;5.800;2023-02-26T05:32:25;102392.04999999999;;;1.24;69.35
54856;BME280;40748;53.168;5.800;2023-02-26T05:34:55;102398.19;;;1.26;69.35
54856;BME280;40748;53.168;5.800;2023-02-26T05:37:25;102399.37;;;1.29;69.23
54856;BME280;40748;53.168;5.800;2023-02-26T05:39:55;102405.54999999999;;;1.30;69.23
54856;BME280;40748;53.168;5.800;2023-02-26T05:42:25;102408.34999999999;;;1.29;69.12
54856;BME280;40748;53.168;5.800;2023-02-26T05:44:55;102408.75000000001;;;1.30;69.03
54856;BME280;40748;53.168;5.800;2023-02-26T05:47:25;102407.98;;;1.27;69.10
54856;BME280;40748;53.168;5.800;2023-02-26T05:49:55;102411.40000000001;;;1.28;69.02
54856;BME280;40748;53.168;5.800;2023-02-26T05:54:55;102418.19;;;1.23;69.12
54856;BME280;40748;53.168;5.800;2023-02-26T05:57:25;102415.15999999999;;;1.25;69.29
54856;BME280;40748;53.168;5.800;2023-02-26T05:59:55;102422.40999999999;;;1.29;69.21
54856;BME280;40748;53.168;5.800;2023-02-26T06:02:25;102428.02999999998;;;1.28;69.08
54856;BME280;40748;53.168;5.800;2023-02-26T06:04:55;102425.56999999999;;;1.25;68.92
54856;BME280;40748;53.168;5.800;2023-02-26T06:09:55;102431.37;;;1.26;69.04
54856;BME280;40748;53.168;5.800;2023-02-26T06:12:25;102438.71999999999;;;1.24;68.93
54856;BME280;40748;53.168;5.800;2023-02-26T06:14:55;102440.58;;;1.21;68.90
54856;BME280;40748;53.168;5.800;2023-02-26T06:17:25;102449.56;;;1.17;68.84
54856;BME280;40748;53.168;5.800;2023-02-26T06:19:55;102454.08;;;1.14;68.94
54856;BME280;40748;53.168;5.800;2023-02-26T06:22:25;102452.95000000001;;;1.11;68.92
54856;BME280;40748;53.168;5.800;2023-02-26T06:24:55;102457.63999999998;;;1.09;69.00
54856;BME280;40748;53.168;5.800;2023-02-26T06:27:25;102459.78;;;1.06;68.97
54856;BME280;40748;53.168;5.800;2023-02-26T06:29:55;102463.77;;;1.04;68.92
54856;BME280;40748;53.168;5.800;2023-02-26T06:32:25;102466.42;;;1.01;68.96
54856;BME280;40748;53.168;5.800;2023-02-26T06:34:55;102468.90000000001;;;0.98;68.95
54856;BME280;40748;53.168;5.800;2023-02-26T06:37:25;102474.76;;;0.93;68.98
54856;BME280;40748;53.168;5.800;2023-02-26T06:39:55;102478.82999999999;;;0.94;69.12
54856;BME280;40748;53.168;5.800;2023-02-26T06:44:55;102483.15;;;0.92;69.01
54856;BME280;40748;53.168;5.800;2023-02-26T06:47:25;102485.11000000002;;;0.88;69.02
54856;BME280;40748;53.168;5.800;2023-02-26T06:49:55;102481.34999999999;;;0.89;69.17
54856;BME280;40748;53.168;5.800;2023-02-26T06:52:25;102486.70999999999;;;0.90;69.27
54856;BME280;40748;53.168;5.800;2023-02-26T06:57:25;102499.67;;;0.91;69.32
54856;BME280;40748;53.168;5.800;2023-02-26T06:59:55;102500.84;;;0.93;69.36
54856;BME280;40748;53.168;5.800;2023-02-26T07:02:25;102505.8;;;0.96;69.44
54856;BME280;40748;53.168;5.800;2023-02-26T07:04:55;102512.39;;;0.99;69.66
54856;BME280;40748;53.168;5.800;2023-02-26T07:07:25;102517.32999999999;;;1.03;69.68
54856;BME280;40748;53.168;5.800;2023-02-26T07:09:55;102521.3;;;1.08;69.76
54856;BME280;40748;53.168;5.800;2023-02-26T07:12:25;102523.84;;;1.12;69.78
54856;BME280;40748;53.168;5.800;2023-02-26T07:14:55;102528.06;;;1.20;70.04
54856;BME280;40748;53.168;5.800;2023-02-26T07:17:25;102529.26;;;1.27;70.12
54856;BME280;40748;53.168;5.800;2023-02-26T07:19:55;102534.5;;;1.34;70.19
54856;BME280;40748;53.168;5.800;2023-02-26T07:22:25;102535.35999999999;;;1.39;70.12
54856;BME280;40748;53.168;5.800;2023-02-26T07:24:55;102541.87999999999;;;1.41;69.99
54856;BME280;40748;53.168;5.800;2023-02-26T07:27:25;102542.32999999999;;;1.45;69.91
54856;BME280;40748;53.168;5.800;2023-02-26T07:29:55;102544.12999999999;;;1.48;69.92
54856;BME280;40748;53.168;5.800;2023-02-26T07:32:25;102544.68;;;1.51;69.96
54856;BME280;40748;53.168;5.800;2023-02-26T07:34:55;102550.11;;;1.56;69.93
54856;BME280;40748;53.168;5.800;2023-02-26T07:37:25;102551.42000000001;;;1.60;70.03
54856;BME280;40748;53.168;5.800;2023-02-26T07:39:55;102554.58000000002;;;1.66;70.12
54856;BME280;40748;53.168;5.800;2023-02-26T07:42:25;102552.81;;;1.73;70.19
54856;BME280;40748;53.168;5.800;2023-02-26T07:44:55;102559.45;;;1.81;70.30
54856;BME280;40748;53.168;5.800;2023-02-26T07:47:25;102558.15;;;1.92;70.50
54856;BME280;40748;53.168;5.800;2023-02-26T07:49:55;102562.74;;;2.12;70.94
54856;BME280;40748;53.168;5.800;2023-02-26T07:52:25;102565.55;;;2.47;71.81
54856;BME280;40748;53.168;5.800;2023-02-26T07:54:55;102561.49;;;2.99;73.42
54856;BME280;40748;53.168;5.800;2023-02-26T07:57:25;102556.36;;;3.66;75.49
54856;BME280;40748;53.168;5.800;2023-02-26T07:59:55;102557.62999999999;;;4.42;77.75
54856;BME280;40748;53.168;5.800;2023-02-26T08:02:25;102562.55000000002;;;5.24;80.20
54856;BME280;40748;53.168;5.800;2023-02-26T08:04:55;102567.4;;;6.07;82.79
54856;BME280;40748;53.168;5.800;2023-02-26T08:07:25;102577.78000000001;;;6.81;84.73
54856;BME280;40748;53.168;5.800;2023-02-26T08:09:55;102571.44;;;7.43;85.57
54856;BME280;40748;53.168;5.800;2023-02-26T08:12:25;102575.83;;;7.91;85.99
54856;BME280;40748;53.168;5.800;2023-02-26T08:14:55;102572.89000000001;;;8.34;85.50
54856;BME280;40748;53.168;5.800;2023-02-26T08:17:25;102572.27;;;8.84;85.98
54856;BME280;40748;53.168;5.800;2023-02-26T08:19:55;102581.01;;;9.39;86.56
54856;BME280;40748;53.168;5.800;2023-02-26T08:22:25;102586.34;;;9.96;87.48
54856;BME280;40748;53.168;5.800;2023-02-26T08:24:55;102582.06999999999;;;10.56;87.71
54856;BME280;40748;53.168;5.800;2023-02-26T08:27:25;102582.06999999999;;;11.08;88.19
54856;BME280;40748;53.168;5.800;2023-02-26T08:29:55;102590.03;;;11.63;87.86
54856;BME280;40748;53.168;5.800;2023-02-26T08:32:25;102594.1;;;12.16;88.22
54856;BME280;40748;53.168;5.800;2023-02-26T08:34:55;102595.07;;;12.68;88.12
54856;BME280;40748;53.168;5.800;2023-02-26T08:37:25;102597.25000000001;;;13.10;87.91
54856;BME280;40748;53.168;5.800;2023-02-26T08:39:55;102604.29999999999;;;13.57;87.08
54856;BME280;40748;53.168;5.800;2023-02-26T08:42:25;102610.93000000001;;;13.90;87.32
54856;BME280;40748;53.168;5.800;2023-02-26T08:44:55;102609.67000000001;;;14.02;85.89
54856;BME280;40748;53.168;5.800;2023-02-26T08:47:25;102612.06;;;13.85;82.50
54856;BME280;40748;53.168;5.800;2023-02-26T08:49:55;102617.68;;;13.31;80.63
54856;BME280;40748;53.168;5.800;2023-02-26T08:52:25;102618.02;;;12.84;76.43
54856;BME280;40748;53.168;5.800;2023-02-26T08:54:55;102617.66;;;12.29;76.15
54856;BME280;40748;53.168;5.800;2023-02-26T08:57:25;102617.99;;;11.80;75.47
54856;BME280;40748;53.168;5.800;2023-02-26T08:59:55;102628.58000000002;;;11.24;74.67
54856;BME280;40748;53.168;5.800;2023-02-26T09:02:25;102624.43000000001;;;10.83;71.98
54856;BME280;40748;53.168;5.800;2023-02-26T09:04:55;102622.11;;;10.16;72.90
54856;BME280;40748;53.168;5.800;2023-02-26T09:07:25;102618.75;;;9.78;69.44
54856;BME280;40748;53.168;5.800;2023-02-26T09:09:55;102641.00000000001;;;9.29;71.06
54856;BME280;40748;53.168;5.800;2023-02-26T09:12:25;102644.89000000001;;;8.72;68.12
54856;BME280;40748;53.168;5.800;2023-02-26T09:14:55;102649.37;;;8.57;63.67
54856;BME280;40748;53.168;5.800;2023-02-26T09:17:25;102645.36;;;8.27;66.08
54856;BME280;40748;53.168;5.800;2023-02-26T09:19:55;102656.52;;;8.24;67.55
54856;BME280;40748;53.168;5.800;2023-02-26T09:22:25;102660.94;;;8.15;66.47
54856;BME280;40748;53.168;5.800;2023-02-26T09:24:55;102658.34;;;8.08;66.92
54856;BME280;40748;53.168;5.800;2023-02-26T09:27:25;102659.47000000002;;;7.95;65.62
54856;BME280;40748;53.168;5.800;2023-02-26T09:29:55;102661.01000000001;;;7.58;62.95
54856;BME280;40748;53.168;5.800;2023-02-26T09:32:25;102658.20000000001;;;7.46;63.45
54856;BME280;40748;53.168;5.800;2023-02-26T09:34:55;102668.86;;;7.31;65.60
54856;BME280;40748;53.168;5.800;2023-02-26T09:37:25;102662.06;;;6.99;64.87
54856;BME280;40748;53.168;5.800;2023-02-26T09:39:55;102658.85;;;6.97;63.88
54856;BME280;40748;53.168;5.800;2023-02-26T09:42:28;102663.1;;;6.70;64.28
54856;BME280;40748;53.168;5.800;2023-02-26T09:44:55;102668.95;;;6.79;62.77
54856;BME280;40748;53.168;5.800;2023-02-26T09:47:26;102672.11;;;6.77;64.87
54856;BME280;40748;53.168;5.800;2023-02-26T09:49:56;102681.87000000001;;;6.47;63.68
54856;BME280;40748;53.168;5.800;2023-02-26T09:52:26;102683.9;;;6.30;64.41
54856;BME280;40748;53.168;5.800;2023-02-26T09:54:55;102688.29000000001;;;6.28;63.76
54856;BME280;40748;53.168;5.800;2023-02-26T09:57:26;102685.12000000001;;;6.10;64.12
54856;BME280;40748;53.168;5.800;2023-02-26T09:59:55;102693.19;;;5.82;63.86
54856;BME280;40748;53.168;5.800;2023-02-26T10:02:28;102692.91;;;5.77;63.73
54856;BME280;40748;53.168;5.800;2023-02-26T10:04:59;102700.06000000001;;;5.68;62.48
54856;BME280;40748;53.168;5.800;2023-02-26T10:07:28;102699.15000000001;;;5.88;63.33
54856;BME280;40748;53.168;5.800;2023-02-26T10:09:58;102710.11000000002;;;5.97;63.05
54856;BME280;40748;53.168;5.800;2023-02-26T10:12:25;102710.70999999999;;;5.83;63.79
54856;BME280;40748;53.168;5.800;2023-02-26T10:14:56;102716.65000000001;;;5.79;63.81
54856;BME280;40748;53.168;5.800;2023-02-26T10:17:26;102723.44;;;5.70;63.97
54856;BME280;40748;53.168;5.800;2023-02-26T10:19:56;102717.31;;;5.66;63.99
54856;BME280;40748;53.168;5.800;2023-02-26T10:22:26;102719.56999999999;;;5.76;63.08
54856;BME280;40748;53.168;5.800;2023-02-26T10:24:58;102725.73999999999;;;5.68;64.05
54856;BME280;40748;53.168;5.800;2023-02-26T10:27:34;102722.21999999999;;;5.77;64.04
54856;BME280;40748;53.168;5.800;2023-02-26T10:29:56;102727.34;;;5.65;64.24
54856;BME280;40748;53.168;5.800;2023-02-26T10:32:27;102731.8;;;5.61;64.51
54856;BME280;40748;53.168;5.800;2023-02-26T10:34:56;102738.37000000001;;;5.72;63.56
54856;BME280;40748;53.168;5.800;2023-02-26T10:37:29;102730.62999999999;;;5.91;64.62
54856;BME280;40748;53.168;5.800;2023-02-26T10:39:56;102739.7;;;5.94;65.00
54856;BME280;40748;53.168;5.800;2023-02-26T10:42:26;102742.59;;;5.82;64.35
54856;BME280;40748;53.168;5.800;2023-02-26T10:44:58;102742.59;;;5.60;64.35
54856;BME280;40748;53.168;5.800;2023-02-26T10:47:27;102740.43999999999;;;5.66;63.79
54856;BME280;40748;53.168;5.800;2023-02-26T10:49:55;102742.26000000001;;;5.89;63.47
54856;BME280;40748;53.168;5.800;2023-02-26T10:52:26;102744.35;;;6.01;63.12
54856;BME280;40748;53.168;5.800;2023-02-26T10:55:01;102745.03;;;6.14;65.15
54856;BME280;40748;53.168;5.800;2023-02-26T10:57:26;102746.2;;;6.71;66.66
54856;BME280;40748;53.168;5.800;2023-02-26T10:59:55;102754.54;;;6.87;67.89
54856;BME280;40748;53.168;5.800;2023-02-26T11:02:31;102755.56999999999;;;6.95;65.26
54856;BME280;40748;53.168;5.800;2023-02-26T11:04:55;102745.65;;;7.41;65.39
54856;BME280;40748;53.168;5.800;2023-02-26T11:07:25;102752.10999999999;;;8.20;65.77
54856;BME280;40748;53.168;5.800;2023-02-26T11:09:55;102743.90000000001;;;8.70;69.65
54856;BME280;40748;53.168;5.800;2023-02-26T11:12:25;102756.52;;;8.80;69.97
54856;BME280;40748;53.168;5.800;2023-02-26T11:14:55;102755.90999999999;;;9.68;59.95
54856;BME280;40748;53.168;5.800;2023-02-26T11:17:26;102759.42;;;10.16;61.47
54856;BME280;40748;53.168;5.800;2023-02-26T11:19:56;102759.42;;;10.52;61.47
54856;BME280;40748;53.168;5.800;2023-02-26T11:22:26;102755.52;;;10.96;59.61
54856;BME280;40748;53.168;5.800;2023-02-26T11:24:55;102766.96999999999;;;11.24;57.76
54856;BME280;40748;53.168;5.800;2023-02-26T11:27:30;102773.49999999999;;;11.69;66.91
54856;BME280;40748;53.168;5.800;2023-02-26T11:29:56;102764.86;;;12.29;61.68
54856;BME280;40748;53.168;5.800;2023-02-26T11:32:28;102771.77999999998;;;12.14;66.73
54856;BME280;40748;53.168;5.800;2023-02-26T11:34:55;102769.96999999999;;;12.06;60.00
54856;BME280;40748;53.168;5.800;2023-02-26T11:37:26;102770.59;;;12.26;58.76
54856;BME280;40748;53.168;5.800;2023-02-26T11:39:55;102770.29;;;11.91;64.67
54856;BME280;40748;53.168;5.800;2023-02-26T11:42:25;102768.48;;;12.66;54.52
54856;BME280;40748;53.168;5.800;2023-02-26T11:44:55;102772.13999999998;;;12.96;57.72
54856;BME280;40748;53.168;5.800;2023-02-26T11:47:25;102767.2;;;13.41;64.81
54856;BME280;40748;53.168;5.800;2023-02-26T11:49:59;102759.92000000001;;;13.46;61.45
54856;BME280;40748;53.168;5.800;2023-02-26T11:52:27;102767.85;;;13.85;56.29
54856;BME280;40748;53.168;5.800;2023-02-26T11:54:56;102764.11;;;13.91;55.49
54856;BME280;40748;53.168;5.800;2023-02-26T11:57:25;102776.18;;;13.80;58.94
54856;BME280;40748;53.168;5.800;2023-02-26T11:59:56;102767.80000000002;;;14.12;52.84
54856;BME280;40748;53.168;5.800;2023-02-26T12:04:55;102767.37000000001;;;14.39;55.40
54856;BME280;40748;53.168;5.800;2023-02-26T12:07:25;102777.86000000002;;;14.92;59.23
54856;BME280;40748;53.168;5.800;2023-02-26T12:09:55;102768.12999999999;;;14.01;59.45
54856;BME280;40748;53.168;5.800;2023-02-26T12:12:29;102778.25;;;13.84;56.57
54856;BME280;40748;53.168;5.800;2023-02-26T12:15:00;102770.70000000001;;;13.07;52.96
54856;BME280;40748;53.168;5.800;2023-02-26T12:17:29;102773.85999999999;;;12.60;51.46
54856;BME280;40748;53.168;5.800;2023-02-26T12:19:56;102770.0;;;13.03;52.97
54856;BME280;40748;53.168;5.800;2023-02-26T12:22:28;102768.71;;;14.14;57.76
54856;BME280;40748;53.168;5.800;2023-02-26T12:25:00;102765.84;;;14.01;59.00
54856;BME280;40748;53.168;5.800;2023-02-26T12:27:27;102771.49999999999;;;14.71;56.86
54856;BME280;40748;53.168;5.800;2023-02-26T12:30:06;102783.27999999998;;;14.30;55.93
54856;BME280;40748;53.168;5.800;2023-02-26T12:32:29;102773.12999999999;;;15.05;53.25
54856;BME280;40748;53.168;5.800;2023-02-26T12:37:29;102769.96999999999;;;16.16;59.00
54856;BME280;40748;53.168;5.800;2023-02-26T12:39:56;102774.21999999999;;;16.10;58.95
54856;BME280;40748;53.168;5.800;2023-02-26T12:42:28;102772.08;;;15.66;49.71
54856;BME280;40748;53.168;5.800;2023-02-26T12:45:00;102775.4;;;16.26;55.96
54856;BME280;40748;53.168;5.800;2023-02-26T12:47:29;102771.28;;;15.75;55.94
54856;BME280;40748;53.168;5.800;2023-02-26T12:49:59;102766.43999999999;;;15.59;50.46
54856;BME280;40748;53.168;5.800;2023-02-26T12:52:33;102770.58;;;15.35;48.29
54856;BME280;40748;53.168;5.800;2023-02-26T12:54:59;102765.31;;;15.01;50.77
54856;BME280;40748;53.168;5.800;2023-02-26T12:57:33;102760.43999999999;;;14.76;50.42
54856;BME280;40748;53.168;5.800;2023-02-26T13:00:00;102769.69999999998;;;13.82;45.52
54856;BME280;40748;53.168;5.800;2023-02-26T13:02:35;102770.41999999998;;;15.11;44.78
54856;BME280;40748;53.168;5.800;2023-02-26T13:04:59;102774.11;;;14.39;51.97
54856;BME280;40748;53.168;5.800;2023-02-26T13:07:36;102783.20000000001;;;14.23;48.69
54856;BME280;40748;53.168;5.800;2023-02-26T13:09:57;102784.16;;;14.59;47.98
54856;BME280;40748;53.168;5.800;2023-02-26T13:12:28;102776.4;;;14.73;50.39
54856;BME280;40748;53.168;5.800;2023-02-26T13:14:57;102776.01;;;14.85;49.84
54856;BME280;40748;53.168;5.800;2023-02-26T13:17:27;102779.22000000002;;;15.21;46.57
54856;BME280;40748;53.168;5.800;2023-02-26T13:19:56;102771.12999999999;;;15.13;49.25
54856;BME280;40748;53.168;5.800;2023-02-26T13:22:27;102779.45999999999;;;14.67;49.85